Mc Connellstown, Pennsylvania
Current Conditions -  °F | °C
As of 2:53 PM on Thursday 23 Oct 2014 (Local Time) from KAOO Reporting Station
Broken Clouds Broken Clouds  
Wind Chill: 60°   Ceiling: 4800
Heat Index: 60°   Visibility: 10mi
Dew Point: 42°   Wind: 10mph
Humidity: 51%   Direction: 320°NW
Pressure: 29.94"   Gusts: 24mph
Location:  40.4547°N, 78.0835°W
Report Text: KAOO 231853Z AUTO 32009G21KT 10SM BKN048 16/06 A2994 RMK AO2 PK WND 31026/1829 SLP138 T01560056
Loading
Personal Weather Stations






























Interactive Weather Map
Tropical Storm Tracking
New forecast layout! Learn more

10-Day Weather Forecast

Advertisements
Track Severe Weather on mobile